sensor_id;sensor_type;location;lat;lon;timestamp;P1;durP1;ratioP1;P2;durP2;ratioP2
54881;SDS011;40775;51.448;4.742;2023-08-06T00:01:05;1.48;;;0.80;;
54881;SDS011;40775;51.448;4.742;2023-08-06T00:03:32;1.05;;;0.63;;
54881;SDS011;40775;51.448;4.742;2023-08-06T00:05:59;1.40;;;0.65;;
54881;SDS011;40775;51.448;4.742;2023-08-06T00:08:26;2.13;;;0.63;;
54881;SDS011;40775;51.448;4.742;2023-08-06T00:10:53;1.65;;;0.80;;
54881;SDS011;40775;51.448;4.742;2023-08-06T00:13:20;2.25;;;0.70;;
54881;SDS011;40775;51.448;4.742;2023-08-06T00:15:47;1.20;;;0.68;;
54881;SDS011;40775;51.448;4.742;2023-08-06T00:18:16;0.88;;;0.60;;
54881;SDS011;40775;51.448;4.742;2023-08-06T00:20:43;6.80;;;1.13;;
54881;SDS011;40775;51.448;4.742;2023-08-06T00:23:10;0.88;;;0.65;;
54881;SDS011;40775;51.448;4.742;2023-08-06T00:25:37;1.50;;;0.70;;
54881;SDS011;40775;51.448;4.742;2023-08-06T00:28:04;2.00;;;0.82;;
54881;SDS011;40775;51.448;4.742;2023-08-06T00:30:31;1.15;;;0.70;;
54881;SDS011;40775;51.448;4.742;2023-08-06T00:32:58;1.50;;;0.82;;
54881;SDS011;40775;51.448;4.742;2023-08-06T00:35:25;1.17;;;0.70;;
54881;SDS011;40775;51.448;4.742;2023-08-06T00:37:52;2.08;;;0.80;;
54881;SDS011;40775;51.448;4.742;2023-08-06T00:40:20;1.48;;;0.70;;
54881;SDS011;40775;51.448;4.742;2023-08-06T00:42:48;1.77;;;0.90;;
54881;SDS011;40775;51.448;4.742;2023-08-06T00:45:15;2.50;;;1.00;;
54881;SDS011;40775;51.448;4.742;2023-08-06T00:47:42;2.85;;;0.95;;
54881;SDS011;40775;51.448;4.742;2023-08-06T00:50:10;1.65;;;0.80;;
54881;SDS011;40775;51.448;4.742;2023-08-06T00:52:37;1.45;;;0.63;;
54881;SDS011;40775;51.448;4.742;2023-08-06T00:55:04;1.27;;;0.70;;
54881;SDS011;40775;51.448;4.742;2023-08-06T00:57:33;1.25;;;0.60;;
54881;SDS011;40775;51.448;4.742;2023-08-06T01:00:00;1.63;;;0.63;;
54881;SDS011;40775;51.448;4.742;2023-08-06T01:02:28;1.17;;;0.73;;
54881;SDS011;40775;51.448;4.742;2023-08-06T01:04:56;1.23;;;0.70;;
54881;SDS011;40775;51.448;4.742;2023-08-06T01:10:07;1.45;;;0.57;;
54881;SDS011;40775;51.448;4.742;2023-08-06T01:12:41;1.63;;;0.90;;
54881;SDS011;40775;51.448;4.742;2023-08-06T01:15:19;2.47;;;0.68;;
54881;SDS011;40775;51.448;4.742;2023-08-06T01:17:54;1.17;;;0.65;;
54881;SDS011;40775;51.448;4.742;2023-08-06T01:20:21;2.40;;;1.00;;
54881;SDS011;40775;51.448;4.742;2023-08-06T01:22:48;2.78;;;0.80;;
54881;SDS011;40775;51.448;4.742;2023-08-06T01:25:15;1.05;;;0.60;;
54881;SDS011;40775;51.448;4.742;2023-08-06T01:27:47;1.52;;;0.80;;
54881;SDS011;40775;51.448;4.742;2023-08-06T01:30:16;1.58;;;0.80;;
54881;SDS011;40775;51.448;4.742;2023-08-06T01:32:54;1.38;;;0.60;;
54881;SDS011;40775;51.448;4.742;2023-08-06T01:35:27;0.75;;;0.52;;
54881;SDS011;40775;51.448;4.742;2023-08-06T01:37:55;1.80;;;0.80;;
54881;SDS011;40775;51.448;4.742;2023-08-06T01:40:22;2.85;;;0.80;;
54881;SDS011;40775;51.448;4.742;2023-08-06T01:42:49;0.60;;;0.38;;
54881;SDS011;40775;51.448;4.742;2023-08-06T01:45:16;2.10;;;0.70;;
54881;SDS011;40775;51.448;4.742;2023-08-06T01:47:43;1.95;;;0.75;;
54881;SDS011;40775;51.448;4.742;2023-08-06T01:50:10;1.17;;;0.63;;
54881;SDS011;40775;51.448;4.742;2023-08-06T01:52:37;1.83;;;0.85;;
54881;SDS011;40775;51.448;4.742;2023-08-06T01:55:04;2.35;;;0.70;;
54881;SDS011;40775;51.448;4.742;2023-08-06T01:57:32;2.53;;;0.98;;
54881;SDS011;40775;51.448;4.742;2023-08-06T01:59:59;1.35;;;0.70;;
54881;SDS011;40775;51.448;4.742;2023-08-06T02:02:26;2.00;;;0.80;;
54881;SDS011;40775;51.448;4.742;2023-08-06T02:04:53;1.67;;;0.70;;
54881;SDS011;40775;51.448;4.742;2023-08-06T02:07:20;1.17;;;0.60;;
54881;SDS011;40775;51.448;4.742;2023-08-06T02:09:47;1.92;;;0.80;;
54881;SDS011;40775;51.448;4.742;2023-08-06T02:12:14;4.18;;;0.90;;
54881;SDS011;40775;51.448;4.742;2023-08-06T02:14:41;1.08;;;0.60;;
54881;SDS011;40775;51.448;4.742;2023-08-06T02:17:08;1.40;;;0.82;;
54881;SDS011;40775;51.448;4.742;2023-08-06T02:19:35;0.98;;;0.57;;
54881;SDS011;40775;51.448;4.742;2023-08-06T02:22:02;1.98;;;0.73;;
54881;SDS011;40775;51.448;4.742;2023-08-06T02:24:29;2.03;;;0.70;;
54881;SDS011;40775;51.448;4.742;2023-08-06T02:26:56;1.50;;;0.70;;
54881;SDS011;40775;51.448;4.742;2023-08-06T02:29:23;1.00;;;0.70;;
54881;SDS011;40775;51.448;4.742;2023-08-06T02:31:50;1.52;;;0.70;;
54881;SDS011;40775;51.448;4.742;2023-08-06T02:34:18;1.25;;;0.70;;
54881;SDS011;40775;51.448;4.742;2023-08-06T02:36:45;0.88;;;0.68;;
54881;SDS011;40775;51.448;4.742;2023-08-06T02:39:12;1.13;;;0.57;;
54881;SDS011;40775;51.448;4.742;2023-08-06T02:41:41;0.63;;;0.60;;
54881;SDS011;40775;51.448;4.742;2023-08-06T02:44:08;0.80;;;0.50;;
54881;SDS011;40775;51.448;4.742;2023-08-06T02:46:34;2.80;;;0.90;;
54881;SDS011;40775;51.448;4.742;2023-08-06T02:49:01;1.83;;;0.90;;
54881;SDS011;40775;51.448;4.742;2023-08-06T02:51:28;1.50;;;0.70;;
54881;SDS011;40775;51.448;4.742;2023-08-06T02:53:55;0.80;;;0.50;;
54881;SDS011;40775;51.448;4.742;2023-08-06T02:56:22;1.15;;;0.63;;
54881;SDS011;40775;51.448;4.742;2023-08-06T02:58:49;1.20;;;0.73;;
54881;SDS011;40775;51.448;4.742;2023-08-06T03:01:16;2.10;;;0.70;;
54881;SDS011;40775;51.448;4.742;2023-08-06T03:03:43;2.17;;;0.88;;
54881;SDS011;40775;51.448;4.742;2023-08-06T03:06:10;1.67;;;0.82;;
54881;SDS011;40775;51.448;4.742;2023-08-06T03:08:37;1.42;;;0.63;;
54881;SDS011;40775;51.448;4.742;2023-08-06T03:11:04;1.33;;;0.68;;
54881;SDS011;40775;51.448;4.742;2023-08-06T03:13:31;1.27;;;0.75;;
54881;SDS011;40775;51.448;4.742;2023-08-06T03:15:59;2.17;;;0.80;;
54881;SDS011;40775;51.448;4.742;2023-08-06T03:18:26;0.68;;;0.60;;
54881;SDS011;40775;51.448;4.742;2023-08-06T03:20:53;1.23;;;0.88;;
54881;SDS011;40775;51.448;4.742;2023-08-06T03:23:21;1.63;;;0.82;;
54881;SDS011;40775;51.448;4.742;2023-08-06T03:25:48;1.40;;;0.80;;
54881;SDS011;40775;51.448;4.742;2023-08-06T03:28:15;2.92;;;0.80;;
54881;SDS011;40775;51.448;4.742;2023-08-06T03:30:42;1.65;;;0.80;;
54881;SDS011;40775;51.448;4.742;2023-08-06T03:33:10;2.25;;;0.75;;
54881;SDS011;40775;51.448;4.742;2023-08-06T03:35:37;1.25;;;0.77;;
54881;SDS011;40775;51.448;4.742;2023-08-06T03:38:04;1.77;;;0.80;;
54881;SDS011;40775;51.448;4.742;2023-08-06T03:40:31;4.40;;;0.80;;
54881;SDS011;40775;51.448;4.742;2023-08-06T03:42:58;2.70;;;1.10;;
54881;SDS011;40775;51.448;4.742;2023-08-06T03:45:25;1.98;;;1.17;;
54881;SDS011;40775;51.448;4.742;2023-08-06T03:47:52;1.35;;;0.88;;
54881;SDS011;40775;51.448;4.742;2023-08-06T03:50:19;2.38;;;1.02;;
54881;SDS011;40775;51.448;4.742;2023-08-06T03:52:46;1.65;;;1.05;;
54881;SDS011;40775;51.448;4.742;2023-08-06T03:55:15;2.50;;;1.00;;
54881;SDS011;40775;51.448;4.742;2023-08-06T03:57:43;2.50;;;1.30;;
54881;SDS011;40775;51.448;4.742;2023-08-06T04:00:10;2.13;;;1.20;;
54881;SDS011;40775;51.448;4.742;2023-08-06T04:02:38;5.05;;;1.30;;
54881;SDS011;40775;51.448;4.742;2023-08-06T04:05:06;1.25;;;0.95;;
54881;SDS011;40775;51.448;4.742;2023-08-06T04:07:33;2.97;;;1.38;;
54881;SDS011;40775;51.448;4.742;2023-08-06T04:10:01;2.42;;;1.10;;
54881;SDS011;40775;51.448;4.742;2023-08-06T04:12:31;3.40;;;1.60;;
54881;SDS011;40775;51.448;4.742;2023-08-06T04:15:02;1.73;;;1.00;;
54881;SDS011;40775;51.448;4.742;2023-08-06T04:17:30;2.28;;;1.20;;
54881;SDS011;40775;51.448;4.742;2023-08-06T04:19:57;3.13;;;1.60;;
54881;SDS011;40775;51.448;4.742;2023-08-06T04:22:25;2.38;;;1.38;;
54881;SDS011;40775;51.448;4.742;2023-08-06T04:24:52;3.03;;;1.13;;
54881;SDS011;40775;51.448;4.742;2023-08-06T04:27:19;1.88;;;1.02;;
54881;SDS011;40775;51.448;4.742;2023-08-06T04:29:46;2.60;;;1.30;;
54881;SDS011;40775;51.448;4.742;2023-08-06T04:32:13;2.45;;;1.10;;
54881;SDS011;40775;51.448;4.742;2023-08-06T04:34:40;3.03;;;1.42;;
54881;SDS011;40775;51.448;4.742;2023-08-06T04:37:07;1.33;;;0.98;;
54881;SDS011;40775;51.448;4.742;2023-08-06T04:39:34;2.30;;;1.20;;
54881;SDS011;40775;51.448;4.742;2023-08-06T04:42:02;3.17;;;1.02;;
54881;SDS011;40775;51.448;4.742;2023-08-06T04:44:29;4.03;;;1.40;;
54881;SDS011;40775;51.448;4.742;2023-08-06T04:46:56;1.52;;;0.70;;
54881;SDS011;40775;51.448;4.742;2023-08-06T04:49:23;1.50;;;0.80;;
54881;SDS011;40775;51.448;4.742;2023-08-06T04:51:51;2.15;;;1.17;;
54881;SDS011;40775;51.448;4.742;2023-08-06T04:54:18;4.20;;;1.20;;
54881;SDS011;40775;51.448;4.742;2023-08-06T04:56:45;2.38;;;1.10;;
54881;SDS011;40775;51.448;4.742;2023-08-06T04:59:12;1.95;;;0.95;;
54881;SDS011;40775;51.448;4.742;2023-08-06T05:01:39;3.03;;;1.20;;
54881;SDS011;40775;51.448;4.742;2023-08-06T05:04:06;2.30;;;0.88;;
54881;SDS011;40775;51.448;4.742;2023-08-06T05:06:34;2.03;;;0.90;;
54881;SDS011;40775;51.448;4.742;2023-08-06T05:09:01;1.05;;;0.60;;
54881;SDS011;40775;51.448;4.742;2023-08-06T05:11:28;1.45;;;0.80;;
54881;SDS011;40775;51.448;4.742;2023-08-06T05:13:55;1.67;;;0.70;;
54881;SDS011;40775;51.448;4.742;2023-08-06T05:16:22;1.48;;;0.65;;
54881;SDS011;40775;51.448;4.742;2023-08-06T05:18:49;2.40;;;0.90;;
54881;SDS011;40775;51.448;4.742;2023-08-06T05:21:16;1.23;;;0.70;;
54881;SDS011;40775;51.448;4.742;2023-08-06T05:23:43;0.98;;;0.57;;
54881;SDS011;40775;51.448;4.742;2023-08-06T05:26:10;1.75;;;0.75;;
54881;SDS011;40775;51.448;4.742;2023-08-06T05:28:37;1.58;;;0.70;;
54881;SDS011;40775;51.448;4.742;2023-08-06T05:31:04;1.17;;;0.70;;
54881;SDS011;40775;51.448;4.742;2023-08-06T05:33:31;3.15;;;0.98;;
54881;SDS011;40775;51.448;4.742;2023-08-06T05:35:58;2.83;;;1.10;;
54881;SDS011;40775;51.448;4.742;2023-08-06T05:38:26;1.33;;;0.70;;
54881;SDS011;40775;51.448;4.742;2023-08-06T05:40:53;3.45;;;0.90;;
54881;SDS011;40775;51.448;4.742;2023-08-06T05:43:22;3.70;;;0.90;;
54881;SDS011;40775;51.448;4.742;2023-08-06T05:45:49;0.82;;;0.60;;
54881;SDS011;40775;51.448;4.742;2023-08-06T05:48:16;2.05;;;1.00;;
54881;SDS011;40775;51.448;4.742;2023-08-06T05:50:44;1.73;;;0.60;;
54881;SDS011;40775;51.448;4.742;2023-08-06T05:53:11;1.17;;;0.60;;
54881;SDS011;40775;51.448;4.742;2023-08-06T05:55:38;1.92;;;0.85;;
54881;SDS011;40775;51.448;4.742;2023-08-06T05:58:05;1.17;;;0.73;;
54881;SDS011;40775;51.448;4.742;2023-08-06T06:00:32;2.75;;;1.23;;
54881;SDS011;40775;51.448;4.742;2023-08-06T06:02:59;2.13;;;1.00;;
54881;SDS011;40775;51.448;4.742;2023-08-06T06:05:26;1.85;;;1.00;;
54881;SDS011;40775;51.448;4.742;2023-08-06T06:07:53;1.70;;;0.80;;
54881;SDS011;40775;51.448;4.742;2023-08-06T06:10:20;2.45;;;0.90;;
54881;SDS011;40775;51.448;4.742;2023-08-06T06:12:47;3.67;;;1.13;;
54881;SDS011;40775;51.448;4.742;2023-08-06T06:15:14;2.33;;;1.05;;
54881;SDS011;40775;51.448;4.742;2023-08-06T06:17:41;2.90;;;1.20;;
54881;SDS011;40775;51.448;4.742;2023-08-06T06:20:09;2.92;;;1.08;;
54881;SDS011;40775;51.448;4.742;2023-08-06T06:22:36;2.40;;;0.90;;
54881;SDS011;40775;51.448;4.742;2023-08-06T06:25:04;3.40;;;0.88;;
54881;SDS011;40775;51.448;4.742;2023-08-06T06:27:32;2.13;;;0.90;;
54881;SDS011;40775;51.448;4.742;2023-08-06T06:29:59;2.75;;;1.00;;
54881;SDS011;40775;51.448;4.742;2023-08-06T06:32:26;1.52;;;0.82;;
54881;SDS011;40775;51.448;4.742;2023-08-06T06:34:53;1.65;;;0.90;;
54881;SDS011;40775;51.448;4.742;2023-08-06T06:37:20;1.70;;;0.80;;
54881;SDS011;40775;51.448;4.742;2023-08-06T06:39:47;11.30;;;1.67;;
54881;SDS011;40775;51.448;4.742;2023-08-06T06:42:15;3.20;;;1.00;;
54881;SDS011;40775;51.448;4.742;2023-08-06T06:44:42;5.43;;;0.70;;
54881;SDS011;40775;51.448;4.742;2023-08-06T06:47:09;1.77;;;0.80;;
54881;SDS011;40775;51.448;4.742;2023-08-06T06:49:36;3.13;;;0.90;;
54881;SDS011;40775;51.448;4.742;2023-08-06T06:52:03;2.08;;;0.80;;
54881;SDS011;40775;51.448;4.742;2023-08-06T06:54:31;2.80;;;0.90;;
54881;SDS011;40775;51.448;4.742;2023-08-06T06:56:58;1.35;;;0.60;;
54881;SDS011;40775;51.448;4.742;2023-08-06T06:59:25;2.03;;;0.60;;
54881;SDS011;40775;51.448;4.742;2023-08-06T07:01:52;2.85;;;0.70;;
54881;SDS011;40775;51.448;4.742;2023-08-06T07:04:19;1.52;;;1.00;;
54881;SDS011;40775;51.448;4.742;2023-08-06T07:06:47;2.03;;;0.60;;
54881;SDS011;40775;51.448;4.742;2023-08-06T07:09:14;1.30;;;0.52;;
54881;SDS011;40775;51.448;4.742;2023-08-06T07:11:41;2.00;;;0.98;;
54881;SDS011;40775;51.448;4.742;2023-08-06T07:14:10;2.45;;;0.90;;
54881;SDS011;40775;51.448;4.742;2023-08-06T07:16:36;1.70;;;0.88;;
54881;SDS011;40775;51.448;4.742;2023-08-06T07:19:04;2.05;;;0.75;;
54881;SDS011;40775;51.448;4.742;2023-08-06T07:21:31;3.00;;;1.38;;
54881;SDS011;40775;51.448;4.742;2023-08-06T07:23:59;1.38;;;0.80;;
54881;SDS011;40775;51.448;4.742;2023-08-06T07:26:26;0.85;;;0.50;;
54881;SDS011;40775;51.448;4.742;2023-08-06T07:28:53;1.45;;;0.60;;
54881;SDS011;40775;51.448;4.742;2023-08-06T07:31:20;2.53;;;0.73;;
54881;SDS011;40775;51.448;4.742;2023-08-06T07:33:47;1.77;;;0.73;;
54881;SDS011;40775;51.448;4.742;2023-08-06T07:36:14;1.73;;;0.80;;
54881;SDS011;40775;51.448;4.742;2023-08-06T07:38:41;2.28;;;0.75;;
54881;SDS011;40775;51.448;4.742;2023-08-06T07:41:09;1.90;;;1.10;;
54881;SDS011;40775;51.448;4.742;2023-08-06T07:43:35;2.47;;;0.70;;
54881;SDS011;40775;51.448;4.742;2023-08-06T07:46:03;3.45;;;1.02;;
54881;SDS011;40775;51.448;4.742;2023-08-06T07:48:30;2.22;;;0.98;;
54881;SDS011;40775;51.448;4.742;2023-08-06T07:50:57;3.15;;;0.47;;
54881;SDS011;40775;51.448;4.742;2023-08-06T07:53:24;1.95;;;0.70;;
54881;SDS011;40775;51.448;4.742;2023-08-06T07:55:56;1.70;;;0.60;;
54881;SDS011;40775;51.448;4.742;2023-08-06T07:58:24;1.67;;;0.90;;
54881;SDS011;40775;51.448;4.742;2023-08-06T08:00:51;2.80;;;0.60;;
54881;SDS011;40775;51.448;4.742;2023-08-06T08:03:19;3.17;;;0.95;;
54881;SDS011;40775;51.448;4.742;2023-08-06T08:05:46;2.72;;;0.80;;
54881;SDS011;40775;51.448;4.742;2023-08-06T08:08:13;2.25;;;0.73;;
54881;SDS011;40775;51.448;4.742;2023-08-06T08:10:40;2.70;;;0.60;;
54881;SDS011;40775;51.448;4.742;2023-08-06T08:13:08;1.00;;;0.75;;
54881;SDS011;40775;51.448;4.742;2023-08-06T08:15:35;1.83;;;0.47;;
54881;SDS011;40775;51.448;4.742;2023-08-06T08:18:02;1.95;;;0.77;;
54881;SDS011;40775;51.448;4.742;2023-08-06T08:20:29;1.15;;;0.50;;
54881;SDS011;40775;51.448;4.742;2023-08-06T08:22:59;3.03;;;0.80;;
54881;SDS011;40775;51.448;4.742;2023-08-06T08:25:27;2.75;;;0.50;;
54881;SDS011;40775;51.448;4.742;2023-08-06T08:27:57;1.35;;;0.40;;
54881;SDS011;40775;51.448;4.742;2023-08-06T08:30:24;0.93;;;0.50;;
54881;SDS011;40775;51.448;4.742;2023-08-06T08:32:52;0.93;;;0.50;;
54881;SDS011;40775;51.448;4.742;2023-08-06T08:35:19;0.98;;;0.30;;
54881;SDS011;40775;51.448;4.742;2023-08-06T08:37:46;3.40;;;0.75;;
54881;SDS011;40775;51.448;4.742;2023-08-06T08:40:14;1.48;;;0.38;;
54881;SDS011;40775;51.448;4.742;2023-08-06T08:42:41;0.88;;;0.47;;
54881;SDS011;40775;51.448;4.742;2023-08-06T08:45:11;1.33;;;0.40;;
54881;SDS011;40775;51.448;4.742;2023-08-06T08:47:41;1.02;;;0.40;;
54881;SDS011;40775;51.448;4.742;2023-08-06T08:50:13;1.38;;;0.40;;
54881;SDS011;40775;51.448;4.742;2023-08-06T08:52:41;2.17;;;0.57;;
54881;SDS011;40775;51.448;4.742;2023-08-06T08:55:12;1.40;;;0.45;;
54881;SDS011;40775;51.448;4.742;2023-08-06T08:57:41;0.65;;;0.30;;
54881;SDS011;40775;51.448;4.742;2023-08-06T09:00:09;3.58;;;0.85;;
54881;SDS011;40775;51.448;4.742;2023-08-06T09:02:37;1.15;;;0.75;;
54881;SDS011;40775;51.448;4.742;2023-08-06T09:05:05;4.95;;;0.70;;
54881;SDS011;40775;51.448;4.742;2023-08-06T09:07:35;2.72;;;0.45;;
54881;SDS011;40775;51.448;4.742;2023-08-06T09:10:13;2.85;;;0.50;;
54881;SDS011;40775;51.448;4.742;2023-08-06T09:12:47;1.20;;;0.40;;
54881;SDS011;40775;51.448;4.742;2023-08-06T09:15:17;0.68;;;0.20;;
54881;SDS011;40775;51.448;4.742;2023-08-06T09:17:44;1.25;;;0.30;;
54881;SDS011;40775;51.448;4.742;2023-08-06T09:20:12;2.92;;;0.40;;
54881;SDS011;40775;51.448;4.742;2023-08-06T09:22:40;1.55;;;0.45;;
54881;SDS011;40775;51.448;4.742;2023-08-06T09:25:07;1.33;;;0.50;;
54881;SDS011;40775;51.448;4.742;2023-08-06T09:27:39;1.17;;;0.50;;
54881;SDS011;40775;51.448;4.742;2023-08-06T09:30:07;0.65;;;0.40;;
54881;SDS011;40775;51.448;4.742;2023-08-06T09:32:47;4.97;;;0.90;;
54881;SDS011;40775;51.448;4.742;2023-08-06T09:35:17;2.90;;;0.38;;
54881;SDS011;40775;51.448;4.742;2023-08-06T09:37:45;2.50;;;0.70;;
54881;SDS011;40775;51.448;4.742;2023-08-06T09:40:30;1.40;;;0.50;;
54881;SDS011;40775;51.448;4.742;2023-08-06T09:42:58;1.58;;;0.30;;
54881;SDS011;40775;51.448;4.742;2023-08-06T09:45:39;2.45;;;0.73;;
54881;SDS011;40775;51.448;4.742;2023-08-06T09:48:07;0.47;;;0.10;;
54881;SDS011;40775;51.448;4.742;2023-08-06T09:50:36;1.80;;;0.50;;
54881;SDS011;40775;51.448;4.742;2023-08-06T09:53:05;2.47;;;0.52;;
54881;SDS011;40775;51.448;4.742;2023-08-06T09:55:34;2.28;;;0.50;;
54881;SDS011;40775;51.448;4.742;2023-08-06T09:58:01;1.63;;;0.30;;
54881;SDS011;40775;51.448;4.742;2023-08-06T10:00:29;0.98;;;0.52;;
54881;SDS011;40775;51.448;4.742;2023-08-06T10:03:02;1.48;;;0.45;;
54881;SDS011;40775;51.448;4.742;2023-08-06T10:05:29;2.03;;;0.55;;
54881;SDS011;40775;51.448;4.742;2023-08-06T10:07:59;1.40;;;0.52;;
54881;SDS011;40775;51.448;4.742;2023-08-06T10:10:28;1.83;;;0.38;;
54881;SDS011;40775;51.448;4.742;2023-08-06T10:12:55;1.27;;;0.68;;
54881;SDS011;40775;51.448;4.742;2023-08-06T10:15:25;0.32;;;0.20;;
54881;SDS011;40775;51.448;4.742;2023-08-06T10:17:56;2.10;;;0.90;;
54881;SDS011;40775;51.448;4.742;2023-08-06T10:20:25;2.25;;;0.57;;
54881;SDS011;40775;51.448;4.742;2023-08-06T10:23:04;2.90;;;0.70;;
54881;SDS011;40775;51.448;4.742;2023-08-06T10:25:35;1.15;;;0.50;;
54881;SDS011;40775;51.448;4.742;2023-08-06T10:30:42;1.80;;;0.70;;
54881;SDS011;40775;51.448;4.742;2023-08-06T10:33:13;0.68;;;0.30;;
54881;SDS011;40775;51.448;4.742;2023-08-06T10:35:48;1.25;;;0.40;;
54881;SDS011;40775;51.448;4.742;2023-08-06T10:38:18;0.75;;;0.30;;
54881;SDS011;40775;51.448;4.742;2023-08-06T10:46:03;0.30;;;0.15;;
54881;SDS011;40775;51.448;4.742;2023-08-06T10:48:37;2.03;;;0.52;;
54881;SDS011;40775;51.448;4.742;2023-08-06T10:51:12;0.98;;;0.40;;
54881;SDS011;40775;51.448;4.742;2023-08-06T10:53:41;1.30;;;0.45;;
54881;SDS011;40775;51.448;4.742;2023-08-06T10:56:17;2.00;;;0.50;;
54881;SDS011;40775;51.448;4.742;2023-08-06T10:58:46;1.20;;;0.38;;
54881;SDS011;40775;51.448;4.742;2023-08-06T11:01:13;5.18;;;0.60;;
54881;SDS011;40775;51.448;4.742;2023-08-06T11:03:42;3.17;;;0.40;;
54881;SDS011;40775;51.448;4.742;2023-08-06T11:06:16;1.17;;;0.35;;
54881;SDS011;40775;51.448;4.742;2023-08-06T11:08:48;2.38;;;0.50;;
54881;SDS011;40775;51.448;4.742;2023-08-06T11:11:20;1.73;;;0.47;;
54881;SDS011;40775;51.448;4.742;2023-08-06T11:13:50;2.42;;;0.35;;
54881;SDS011;40775;51.448;4.742;2023-08-06T11:16:19;1.98;;;0.60;;
54881;SDS011;40775;51.448;4.742;2023-08-06T11:18:51;3.58;;;0.70;;
54881;SDS011;40775;51.448;4.742;2023-08-06T11:21:20;0.30;;;0.30;;
54881;SDS011;40775;51.448;4.742;2023-08-06T11:23:50;0.75;;;0.30;;
54881;SDS011;40775;51.448;4.742;2023-08-06T11:26:21;2.38;;;0.50;;
54881;SDS011;40775;51.448;4.742;2023-08-06T11:28:53;3.00;;;0.70;;
54881;SDS011;40775;51.448;4.742;2023-08-06T11:31:21;0.98;;;0.30;;
54881;SDS011;40775;51.448;4.742;2023-08-06T11:33:53;0.73;;;0.15;;
54881;SDS011;40775;51.448;4.742;2023-08-06T11:36:34;2.15;;;0.70;;
54881;SDS011;40775;51.448;4.742;2023-08-06T11:39:06;2.78;;;0.30;;
54881;SDS011;40775;51.448;4.742;2023-08-06T11:41:35;1.60;;;0.35;;
54881;SDS011;40775;51.448;4.742;2023-08-06T11:44:07;0.85;;;0.32;;
54881;SDS011;40775;51.448;4.742;2023-08-06T11:46:59;3.88;;;0.40;;
54881;SDS011;40775;51.448;4.742;2023-08-06T11:49:37;0.75;;;0.20;;
54881;SDS011;40775;51.448;4.742;2023-08-06T11:52:09;1.27;;;0.40;;
54881;SDS011;40775;51.448;4.742;2023-08-06T11:54:40;2.47;;;0.30;;
54881;SDS011;40775;51.448;4.742;2023-08-06T11:57:09;0.73;;;0.30;;
54881;SDS011;40775;51.448;4.742;2023-08-06T11:59:38;1.58;;;0.40;;
54881;SDS011;40775;51.448;4.742;2023-08-06T12:02:07;2.85;;;0.38;;
54881;SDS011;40775;51.448;4.742;2023-08-06T12:04:58;2.92;;;0.63;;
54881;SDS011;40775;51.448;4.742;2023-08-06T12:07:35;2.70;;;0.38;;
54881;SDS011;40775;51.448;4.742;2023-08-06T12:10:05;2.75;;;0.50;;
54881;SDS011;40775;51.448;4.742;2023-08-06T12:12:33;2.22;;;0.45;;
54881;SDS011;40775;51.448;4.742;2023-08-06T12:15:01;1.17;;;0.20;;
54881;SDS011;40775;51.448;4.742;2023-08-06T12:17:29;1.98;;;0.40;;
54881;SDS011;40775;51.448;4.742;2023-08-06T12:19:56;2.58;;;0.60;;
54881;SDS011;40775;51.448;4.742;2023-08-06T12:22:23;0.95;;;0.35;;
54881;SDS011;40775;51.448;4.742;2023-08-06T12:24:50;2.60;;;0.30;;
54881;SDS011;40775;51.448;4.742;2023-08-06T12:27:18;1.45;;;0.45;;
54881;SDS011;40775;51.448;4.742;2023-08-06T12:29:46;1.08;;;0.28;;
54881;SDS011;40775;51.448;4.742;2023-08-06T12:32:14;1.85;;;0.75;;
54881;SDS011;40775;51.448;4.742;2023-08-06T12:34:42;2.95;;;0.45;;
54881;SDS011;40775;51.448;4.742;2023-08-06T12:37:18;2.60;;;0.50;;
54881;SDS011;40775;51.448;4.742;2023-08-06T12:39:46;1.75;;;0.43;;
54881;SDS011;40775;51.448;4.742;2023-08-06T12:42:13;1.25;;;0.20;;
54881;SDS011;40775;51.448;4.742;2023-08-06T12:44:40;2.63;;;0.38;;
54881;SDS011;40775;51.448;4.742;2023-08-06T12:47:07;2.05;;;0.47;;
54881;SDS011;40775;51.448;4.742;2023-08-06T12:49:34;2.35;;;0.30;;
54881;SDS011;40775;51.448;4.742;2023-08-06T12:52:02;0.75;;;0.22;;
54881;SDS011;40775;51.448;4.742;2023-08-06T12:54:32;4.22;;;0.50;;
54881;SDS011;40775;51.448;4.742;2023-08-06T12:57:05;2.30;;;0.63;;
54881;SDS011;40775;51.448;4.742;2023-08-06T12:59:33;2.17;;;0.52;;
54881;SDS011;40775;51.448;4.742;2023-08-06T13:02:00;3.10;;;0.40;;
54881;SDS011;40775;51.448;4.742;2023-08-06T13:04:27;1.95;;;0.60;;
54881;SDS011;40775;51.448;4.742;2023-08-06T13:06:55;1.77;;;0.28;;
54881;SDS011;40775;51.448;4.742;2023-08-06T13:09:21;1.17;;;0.52;;
54881;SDS011;40775;51.448;4.742;2023-08-06T13:11:49;5.57;;;0.80;;
54881;SDS011;40775;51.448;4.742;2023-08-06T13:14:16;2.38;;;0.40;;
54881;SDS011;40775;51.448;4.742;2023-08-06T13:16:43;0.77;;;0.43;;
54881;SDS011;40775;51.448;4.742;2023-08-06T13:19:11;2.53;;;0.63;;
54881;SDS011;40775;51.448;4.742;2023-08-06T13:24:08;2.30;;;0.43;;
54881;SDS011;40775;51.448;4.742;2023-08-06T13:26:35;4.80;;;0.65;;
54881;SDS011;40775;51.448;4.742;2023-08-06T13:29:02;2.50;;;0.82;;
54881;SDS011;40775;51.448;4.742;2023-08-06T13:31:29;2.58;;;0.40;;
54881;SDS011;40775;51.448;4.742;2023-08-06T13:33:56;1.10;;;0.50;;
54881;SDS011;40775;51.448;4.742;2023-08-06T13:36:26;3.03;;;0.40;;
54881;SDS011;40775;51.448;4.742;2023-08-06T13:38:55;1.17;;;0.45;;
54881;SDS011;40775;51.448;4.742;2023-08-06T13:41:24;2.50;;;0.50;;
54881;SDS011;40775;51.448;4.742;2023-08-06T13:43:52;0.38;;;0.17;;
54881;SDS011;40775;51.448;4.742;2023-08-06T13:46:19;1.92;;;0.40;;
54881;SDS011;40775;51.448;4.742;2023-08-06T13:48:47;0.22;;;0.13;;
54881;SDS011;40775;51.448;4.742;2023-08-06T13:51:18;2.53;;;0.52;;
54881;SDS011;40775;51.448;4.742;2023-08-06T13:53:45;2.78;;;0.32;;
54881;SDS011;40775;51.448;4.742;2023-08-06T13:56:12;1.70;;;0.40;;
54881;SDS011;40775;51.448;4.742;2023-08-06T13:58:43;1.00;;;0.38;;
54881;SDS011;40775;51.448;4.742;2023-08-06T14:01:10;1.58;;;0.30;;
54881;SDS011;40775;51.448;4.742;2023-08-06T14:03:39;2.70;;;0.40;;
54881;SDS011;40775;51.448;4.742;2023-08-06T14:06:06;2.58;;;0.57;;
54881;SDS011;40775;51.448;4.742;2023-08-06T14:08:33;2.08;;;0.47;;
54881;SDS011;40775;51.448;4.742;2023-08-06T14:11:00;2.50;;;0.40;;
54881;SDS011;40775;51.448;4.742;2023-08-06T14:13:27;1.88;;;0.55;;
54881;SDS011;40775;51.448;4.742;2023-08-06T14:15:54;1.10;;;0.40;;
54881;SDS011;40775;51.448;4.742;2023-08-06T14:18:22;1.85;;;0.60;;
54881;SDS011;40775;51.448;4.742;2023-08-06T14:20:49;2.67;;;0.57;;
54881;SDS011;40775;51.448;4.742;2023-08-06T14:23:15;0.80;;;0.30;;
54881;SDS011;40775;51.448;4.742;2023-08-06T14:25:43;0.98;;;0.30;;
54881;SDS011;40775;51.448;4.742;2023-08-06T14:28:10;2.50;;;0.40;;
54881;SDS011;40775;51.448;4.742;2023-08-06T14:30:36;2.50;;;0.55;;
54881;SDS011;40775;51.448;4.742;2023-08-06T14:33:03;1.50;;;0.40;;
54881;SDS011;40775;51.448;4.742;2023-08-06T14:35:50;1.38;;;0.40;;
54881;SDS011;40775;51.448;4.742;2023-08-06T14:38:17;1.30;;;0.40;;
54881;SDS011;40775;51.448;4.742;2023-08-06T14:40:44;0.32;;;0.20;;
54881;SDS011;40775;51.448;4.742;2023-08-06T14:43:11;0.20;;;0.10;;
54881;SDS011;40775;51.448;4.742;2023-08-06T14:45:41;1.10;;;0.35;;
54881;SDS011;40775;51.448;4.742;2023-08-06T14:48:08;0.63;;;0.35;;
54881;SDS011;40775;51.448;4.742;2023-08-06T14:50:35;1.15;;;0.32;;
54881;SDS011;40775;51.448;4.742;2023-08-06T14:53:02;1.48;;;0.30;;
54881;SDS011;40775;51.448;4.742;2023-08-06T14:55:31;1.50;;;0.40;;
54881;SDS011;40775;51.448;4.742;2023-08-06T14:58:00;2.35;;;0.52;;
54881;SDS011;40775;51.448;4.742;2023-08-06T15:00:27;0.93;;;0.20;;
54881;SDS011;40775;51.448;4.742;2023-08-06T15:02:55;0.82;;;0.35;;
54881;SDS011;40775;51.448;4.742;2023-08-06T15:05:22;1.17;;;0.40;;
54881;SDS011;40775;51.448;4.742;2023-08-06T15:07:49;0.73;;;0.30;;